sensor_id;sensor_type;location;lat;lon;timestamp;temperature;humidity
34135;DHT22;20410;55.578;12.968;2023-10-31T00:01:58;11.40;80.10
34135;DHT22;20410;55.578;12.968;2023-10-31T00:04:24;11.50;79.30
34135;DHT22;20410;55.578;12.968;2023-10-31T00:06:50;11.40;75.40
34135;DHT22;20410;55.578;12.968;2023-10-31T00:09:16;11.50;79.60
34135;DHT22;20410;55.578;12.968;2023-10-31T00:11:42;11.50;74.60
34135;DHT22;20410;55.578;12.968;2023-10-31T00:14:08;11.50;74.80
34135;DHT22;20410;55.578;12.968;2023-10-31T00:16:34;11.50;78.50
34135;DHT22;20410;55.578;12.968;2023-10-31T00:18:59;11.50;84.90
34135;DHT22;20410;55.578;12.968;2023-10-31T00:21:25;11.60;74.00
34135;DHT22;20410;55.578;12.968;2023-10-31T00:23:50;11.60;75.50
34135;DHT22;20410;55.578;12.968;2023-10-31T00:26:16;11.60;70.80
34135;DHT22;20410;55.578;12.968;2023-10-31T00:28:42;11.60;67.50
34135;DHT22;20410;55.578;12.968;2023-10-31T00:31:07;11.50;65.20
34135;DHT22;20410;55.578;12.968;2023-10-31T00:33:34;11.50;65.60
34135;DHT22;20410;55.578;12.968;2023-10-31T00:36:00;11.60;71.80
34135;DHT22;20410;55.578;12.968;2023-10-31T00:38:25;11.60;74.80
34135;DHT22;20410;55.578;12.968;2023-10-31T00:40:51;11.60;78.20
34135;DHT22;20410;55.578;12.968;2023-10-31T00:43:17;11.60;78.80
34135;DHT22;20410;55.578;12.968;2023-10-31T00:45:42;11.70;80.60
34135;DHT22;20410;55.578;12.968;2023-10-31T00:48:08;11.80;87.80
34135;DHT22;20410;55.578;12.968;2023-10-31T00:50:33;11.80;82.20
34135;DHT22;20410;55.578;12.968;2023-10-31T00:52:59;11.80;84.80
34135;DHT22;20410;55.578;12.968;2023-10-31T00:55:24;11.90;84.40
34135;DHT22;20410;55.578;12.968;2023-10-31T00:57:50;11.90;79.60
34135;DHT22;20410;55.578;12.968;2023-10-31T01:00:16;11.90;70.50
34135;DHT22;20410;55.578;12.968;2023-10-31T01:02:42;11.90;68.20
34135;DHT22;20410;55.578;12.968;2023-10-31T01:05:07;11.90;57.50
34135;DHT22;20410;55.578;12.968;2023-10-31T01:07:34;11.90;55.60
34135;DHT22;20410;55.578;12.968;2023-10-31T01:09:59;11.90;63.90
34135;DHT22;20410;55.578;12.968;2023-10-31T01:12:25;11.90;69.30
34135;DHT22;20410;55.578;12.968;2023-10-31T01:14:53;12.00;66.60
34135;DHT22;20410;55.578;12.968;2023-10-31T01:17:20;12.00;64.80
34135;DHT22;20410;55.578;12.968;2023-10-31T01:19:45;12.00;65.40
34135;DHT22;20410;55.578;12.968;2023-10-31T01:22:11;12.00;52.70
34135;DHT22;20410;55.578;12.968;2023-10-31T01:24:36;12.00;56.10
34135;DHT22;20410;55.578;12.968;2023-10-31T01:27:02;12.00;65.60
34135;DHT22;20410;55.578;12.968;2023-10-31T01:29:27;12.00;67.60
34135;DHT22;20410;55.578;12.968;2023-10-31T01:31:53;12.10;53.20
34135;DHT22;20410;55.578;12.968;2023-10-31T01:34:19;12.10;53.60
34135;DHT22;20410;55.578;12.968;2023-10-31T01:36:44;12.10;50.40
34135;DHT22;20410;55.578;12.968;2023-10-31T01:39:10;12.10;50.60
34135;DHT22;20410;55.578;12.968;2023-10-31T01:41:35;12.10;47.30
34135;DHT22;20410;55.578;12.968;2023-10-31T01:44:01;12.10;42.80
34135;DHT22;20410;55.578;12.968;2023-10-31T01:46:27;12.10;43.30
34135;DHT22;20410;55.578;12.968;2023-10-31T01:48:53;12.10;39.30
34135;DHT22;20410;55.578;12.968;2023-10-31T01:51:18;12.10;29.20
34135;DHT22;20410;55.578;12.968;2023-10-31T01:53:44;12.00;37.80
34135;DHT22;20410;55.578;12.968;2023-10-31T01:56:10;12.00;56.00
34135;DHT22;20410;55.578;12.968;2023-10-31T01:58:37;12.00;65.40
34135;DHT22;20410;55.578;12.968;2023-10-31T02:01:04;12.00;61.30
34135;DHT22;20410;55.578;12.968;2023-10-31T02:03:30;11.90;53.90
34135;DHT22;20410;55.578;12.968;2023-10-31T02:05:56;11.80;90.00
34135;DHT22;20410;55.578;12.968;2023-10-31T02:08:22;11.90;74.90
34135;DHT22;20410;55.578;12.968;2023-10-31T02:10:48;11.90;76.90
34135;DHT22;20410;55.578;12.968;2023-10-31T02:13:14;11.80;83.20
34135;DHT22;20410;55.578;12.968;2023-10-31T02:15:41;11.80;83.90
34135;DHT22;20410;55.578;12.968;2023-10-31T02:18:07;11.90;92.20
34135;DHT22;20410;55.578;12.968;2023-10-31T02:20:33;11.90;82.10
34135;DHT22;20410;55.578;12.968;2023-10-31T02:22:59;11.90;81.80
34135;DHT22;20410;55.578;12.968;2023-10-31T02:25:25;11.90;80.60
34135;DHT22;20410;55.578;12.968;2023-10-31T02:27:51;11.90;71.60
34135;DHT22;20410;55.578;12.968;2023-10-31T02:30:16;11.90;75.90
34135;DHT22;20410;55.578;12.968;2023-10-31T02:32:42;11.90;84.10
34135;DHT22;20410;55.578;12.968;2023-10-31T02:35:08;11.90;84.40
34135;DHT22;20410;55.578;12.968;2023-10-31T02:37:34;11.80;83.50
34135;DHT22;20410;55.578;12.968;2023-10-31T02:40:00;11.80;78.40
34135;DHT22;20410;55.578;12.968;2023-10-31T02:42:26;11.70;94.60
34135;DHT22;20410;55.578;12.968;2023-10-31T02:44:52;11.70;99.30
34135;DHT22;20410;55.578;12.968;2023-10-31T02:47:18;11.70;99.90
34135;DHT22;20410;55.578;12.968;2023-10-31T02:49:43;11.60;99.90
34135;DHT22;20410;55.578;12.968;2023-10-31T02:52:09;11.60;99.90
34135;DHT22;20410;55.578;12.968;2023-10-31T02:54:34;11.60;99.90
34135;DHT22;20410;55.578;12.968;2023-10-31T02:57:00;11.60;99.90
34135;DHT22;20410;55.578;12.968;2023-10-31T02:59:26;11.60;99.90
34135;DHT22;20410;55.578;12.968;2023-10-31T03:01:52;11.60;99.90
34135;DHT22;20410;55.578;12.968;2023-10-31T03:04:18;11.60;99.90
34135;DHT22;20410;55.578;12.968;2023-10-31T03:06:43;11.60;99.90
34135;DHT22;20410;55.578;12.968;2023-10-31T03:09:09;11.60;99.90
34135;DHT22;20410;55.578;12.968;2023-10-31T03:11:35;11.60;99.90
34135;DHT22;20410;55.578;12.968;2023-10-31T03:14:01;11.70;99.90
34135;DHT22;20410;55.578;12.968;2023-10-31T03:16:26;11.70;99.90
34135;DHT22;20410;55.578;12.968;2023-10-31T03:18:52;11.70;99.90
34135;DHT22;20410;55.578;12.968;2023-10-31T03:21:18;11.80;99.90
34135;DHT22;20410;55.578;12.968;2023-10-31T03:23:47;11.80;99.90
34135;DHT22;20410;55.578;12.968;2023-10-31T03:26:14;11.80;99.90
34135;DHT22;20410;55.578;12.968;2023-10-31T03:28:39;11.90;99.90
34135;DHT22;20410;55.578;12.968;2023-10-31T03:31:05;11.90;99.90
34135;DHT22;20410;55.578;12.968;2023-10-31T03:33:30;12.00;99.90
34135;DHT22;20410;55.578;12.968;2023-10-31T03:35:56;11.90;99.90
34135;DHT22;20410;55.578;12.968;2023-10-31T03:38:21;11.90;99.90
34135;DHT22;20410;55.578;12.968;2023-10-31T03:40:47;11.90;99.90
34135;DHT22;20410;55.578;12.968;2023-10-31T03:43:13;12.00;99.90
34135;DHT22;20410;55.578;12.968;2023-10-31T03:45:40;12.00;99.90
34135;DHT22;20410;55.578;12.968;2023-10-31T03:48:06;12.10;99.90
34135;DHT22;20410;55.578;12.968;2023-10-31T03:50:31;12.10;99.90
34135;DHT22;20410;55.578;12.968;2023-10-31T03:52:57;11.90;99.90
34135;DHT22;20410;55.578;12.968;2023-10-31T03:55:22;11.80;99.90
34135;DHT22;20410;55.578;12.968;2023-10-31T03:57:48;11.70;99.90
34135;DHT22;20410;55.578;12.968;2023-10-31T04:00:14;11.70;99.90
34135;DHT22;20410;55.578;12.968;2023-10-31T04:02:40;11.70;99.90
34135;DHT22;20410;55.578;12.968;2023-10-31T04:05:06;11.60;99.90
34135;DHT22;20410;55.578;12.968;2023-10-31T04:07:32;11.60;99.90
34135;DHT22;20410;55.578;12.968;2023-10-31T04:09:58;11.70;99.90
34135;DHT22;20410;55.578;12.968;2023-10-31T04:12:23;11.70;99.90
34135;DHT22;20410;55.578;12.968;2023-10-31T04:14:49;11.70;99.90
34135;DHT22;20410;55.578;12.968;2023-10-31T04:17:14;11.70;99.90
34135;DHT22;20410;55.578;12.968;2023-10-31T04:19:40;11.70;99.90
34135;DHT22;20410;55.578;12.968;2023-10-31T04:22:05;11.70;99.90
34135;DHT22;20410;55.578;12.968;2023-10-31T04:24:31;11.60;99.90
34135;DHT22;20410;55.578;12.968;2023-10-31T04:26:57;11.60;99.90
34135;DHT22;20410;55.578;12.968;2023-10-31T04:29:22;11.50;99.90
34135;DHT22;20410;55.578;12.968;2023-10-31T04:31:48;11.40;99.90
34135;DHT22;20410;55.578;12.968;2023-10-31T04:34:14;11.40;99.90
34135;DHT22;20410;55.578;12.968;2023-10-31T04:36:39;11.40;99.90
34135;DHT22;20410;55.578;12.968;2023-10-31T04:39:05;11.50;99.90
34135;DHT22;20410;55.578;12.968;2023-10-31T04:41:31;11.50;99.90
34135;DHT22;20410;55.578;12.968;2023-10-31T04:43:56;11.50;99.90
34135;DHT22;20410;55.578;12.968;2023-10-31T04:46:22;11.50;99.90
34135;DHT22;20410;55.578;12.968;2023-10-31T04:48:47;11.60;99.90
34135;DHT22;20410;55.578;12.968;2023-10-31T04:51:13;11.60;99.90
34135;DHT22;20410;55.578;12.968;2023-10-31T04:53:39;11.50;99.90
34135;DHT22;20410;55.578;12.968;2023-10-31T04:56:04;11.60;99.90
34135;DHT22;20410;55.578;12.968;2023-10-31T04:58:36;11.60;99.90
34135;DHT22;20410;55.578;12.968;2023-10-31T05:01:02;11.70;99.90
34135;DHT22;20410;55.578;12.968;2023-10-31T05:03:28;11.60;99.90
34135;DHT22;20410;55.578;12.968;2023-10-31T05:05:53;11.60;99.90
34135;DHT22;20410;55.578;12.968;2023-10-31T05:08:19;11.50;99.90
34135;DHT22;20410;55.578;12.968;2023-10-31T05:10:45;11.60;99.90
34135;DHT22;20410;55.578;12.968;2023-10-31T05:13:12;11.60;99.90
34135;DHT22;20410;55.578;12.968;2023-10-31T05:15:38;11.60;99.90
34135;DHT22;20410;55.578;12.968;2023-10-31T05:18:04;11.50;99.90
34135;DHT22;20410;55.578;12.968;2023-10-31T05:20:29;11.50;99.90
34135;DHT22;20410;55.578;12.968;2023-10-31T05:22:55;11.50;99.90
34135;DHT22;20410;55.578;12.968;2023-10-31T05:25:20;11.50;99.90
34135;DHT22;20410;55.578;12.968;2023-10-31T05:27:46;11.50;99.90
34135;DHT22;20410;55.578;12.968;2023-10-31T05:30:13;11.50;99.90
34135;DHT22;20410;55.578;12.968;2023-10-31T05:32:39;11.50;99.90
34135;DHT22;20410;55.578;12.968;2023-10-31T05:35:05;11.50;99.90
34135;DHT22;20410;55.578;12.968;2023-10-31T05:37:31;11.50;99.90
34135;DHT22;20410;55.578;12.968;2023-10-31T05:39:56;11.60;99.90
34135;DHT22;20410;55.578;12.968;2023-10-31T05:42:22;11.70;99.90
34135;DHT22;20410;55.578;12.968;2023-10-31T05:44:48;11.80;99.90
34135;DHT22;20410;55.578;12.968;2023-10-31T05:47:14;11.80;99.90
34135;DHT22;20410;55.578;12.968;2023-10-31T05:49:41;11.80;99.90
34135;DHT22;20410;55.578;12.968;2023-10-31T05:52:07;11.80;99.90
34135;DHT22;20410;55.578;12.968;2023-10-31T05:54:32;11.80;99.90
34135;DHT22;20410;55.578;12.968;2023-10-31T05:56:58;11.80;99.90
34135;DHT22;20410;55.578;12.968;2023-10-31T05:59:23;11.70;99.90
34135;DHT22;20410;55.578;12.968;2023-10-31T06:01:50;11.70;99.90
34135;DHT22;20410;55.578;12.968;2023-10-31T06:04:15;11.70;99.90
34135;DHT22;20410;55.578;12.968;2023-10-31T06:06:41;11.60;99.90
34135;DHT22;20410;55.578;12.968;2023-10-31T06:09:06;11.60;99.90
34135;DHT22;20410;55.578;12.968;2023-10-31T06:11:32;11.70;99.90
34135;DHT22;20410;55.578;12.968;2023-10-31T06:13:59;11.70;99.90
34135;DHT22;20410;55.578;12.968;2023-10-31T06:16:24;11.80;99.90
34135;DHT22;20410;55.578;12.968;2023-10-31T06:18:50;11.80;99.90
34135;DHT22;20410;55.578;12.968;2023-10-31T06:21:16;11.80;99.90
34135;DHT22;20410;55.578;12.968;2023-10-31T06:23:41;11.80;99.90
34135;DHT22;20410;55.578;12.968;2023-10-31T06:26:08;11.80;99.90
34135;DHT22;20410;55.578;12.968;2023-10-31T06:28:34;11.80;99.90
34135;DHT22;20410;55.578;12.968;2023-10-31T06:31:01;11.70;99.90
34135;DHT22;20410;55.578;12.968;2023-10-31T06:33:27;11.60;99.90
34135;DHT22;20410;55.578;12.968;2023-10-31T06:35:53;11.60;99.90
34135;DHT22;20410;55.578;12.968;2023-10-31T06:38:19;11.60;99.90
34135;DHT22;20410;55.578;12.968;2023-10-31T06:40:45;11.70;99.90
34135;DHT22;20410;55.578;12.968;2023-10-31T06:43:11;11.80;99.90
34135;DHT22;20410;55.578;12.968;2023-10-31T06:45:36;11.80;99.90
34135;DHT22;20410;55.578;12.968;2023-10-31T06:48:02;11.80;99.90
34135;DHT22;20410;55.578;12.968;2023-10-31T06:50:28;11.90;99.90
34135;DHT22;20410;55.578;12.968;2023-10-31T06:52:54;11.90;99.90
34135;DHT22;20410;55.578;12.968;2023-10-31T06:55:19;11.90;99.90
34135;DHT22;20410;55.578;12.968;2023-10-31T06:57:45;11.90;99.90
34135;DHT22;20410;55.578;12.968;2023-10-31T07:00:11;11.90;99.90
34135;DHT22;20410;55.578;12.968;2023-10-31T07:02:37;11.80;99.90
34135;DHT22;20410;55.578;12.968;2023-10-31T07:05:03;11.80;99.90
34135;DHT22;20410;55.578;12.968;2023-10-31T07:07:29;11.90;99.90
34135;DHT22;20410;55.578;12.968;2023-10-31T07:09:55;11.90;99.90
34135;DHT22;20410;55.578;12.968;2023-10-31T07:12:20;11.70;99.90
34135;DHT22;20410;55.578;12.968;2023-10-31T07:14:47;11.70;99.90
34135;DHT22;20410;55.578;12.968;2023-10-31T07:17:13;11.60;99.90
34135;DHT22;20410;55.578;12.968;2023-10-31T07:19:38;11.60;99.90
34135;DHT22;20410;55.578;12.968;2023-10-31T07:22:04;11.70;99.90
34135;DHT22;20410;55.578;12.968;2023-10-31T07:24:29;11.70;99.90
34135;DHT22;20410;55.578;12.968;2023-10-31T07:26:55;11.70;99.90
34135;DHT22;20410;55.578;12.968;2023-10-31T07:29:20;11.70;99.90
34135;DHT22;20410;55.578;12.968;2023-10-31T07:31:46;11.80;99.90
34135;DHT22;20410;55.578;12.968;2023-10-31T07:34:11;11.80;99.90
34135;DHT22;20410;55.578;12.968;2023-10-31T07:36:37;11.70;99.90
34135;DHT22;20410;55.578;12.968;2023-10-31T07:39:05;11.70;99.90
34135;DHT22;20410;55.578;12.968;2023-10-31T07:41:30;11.60;99.90
34135;DHT22;20410;55.578;12.968;2023-10-31T07:43:56;11.50;99.90
34135;DHT22;20410;55.578;12.968;2023-10-31T07:46:21;11.60;99.90
34135;DHT22;20410;55.578;12.968;2023-10-31T07:48:48;11.60;99.90
34135;DHT22;20410;55.578;12.968;2023-10-31T07:51:14;11.60;99.90
34135;DHT22;20410;55.578;12.968;2023-10-31T07:53:41;11.60;99.90
34135;DHT22;20410;55.578;12.968;2023-10-31T07:56:15;11.60;99.90
34135;DHT22;20410;55.578;12.968;2023-10-31T07:58:41;11.60;99.90
34135;DHT22;20410;55.578;12.968;2023-10-31T08:01:06;11.60;99.90
34135;DHT22;20410;55.578;12.968;2023-10-31T08:03:36;11.60;99.90
34135;DHT22;20410;55.578;12.968;2023-10-31T08:06:02;11.50;99.90
34135;DHT22;20410;55.578;12.968;2023-10-31T08:08:28;11.50;99.90
34135;DHT22;20410;55.578;12.968;2023-10-31T08:10:54;11.50;99.90
34135;DHT22;20410;55.578;12.968;2023-10-31T08:13:19;11.50;99.90
34135;DHT22;20410;55.578;12.968;2023-10-31T08:15:45;11.50;99.90
34135;DHT22;20410;55.578;12.968;2023-10-31T08:18:10;11.60;99.90
34135;DHT22;20410;55.578;12.968;2023-10-31T08:20:36;11.60;99.90
34135;DHT22;20410;55.578;12.968;2023-10-31T08:23:01;11.70;99.90
34135;DHT22;20410;55.578;12.968;2023-10-31T08:25:27;11.70;99.90
34135;DHT22;20410;55.578;12.968;2023-10-31T08:27:52;11.80;99.90
34135;DHT22;20410;55.578;12.968;2023-10-31T08:30:18;11.70;99.90
34135;DHT22;20410;55.578;12.968;2023-10-31T08:32:45;11.70;99.90
34135;DHT22;20410;55.578;12.968;2023-10-31T08:35:11;11.70;99.90
34135;DHT22;20410;55.578;12.968;2023-10-31T08:37:36;11.60;99.90
34135;DHT22;20410;55.578;12.968;2023-10-31T08:40:02;11.60;99.90
34135;DHT22;20410;55.578;12.968;2023-10-31T08:42:30;11.60;99.90
34135;DHT22;20410;55.578;12.968;2023-10-31T08:44:55;11.70;99.90
34135;DHT22;20410;55.578;12.968;2023-10-31T08:47:21;11.60;99.90
34135;DHT22;20410;55.578;12.968;2023-10-31T08:49:46;11.60;99.90
34135;DHT22;20410;55.578;12.968;2023-10-31T08:52:12;11.60;99.90
34135;DHT22;20410;55.578;12.968;2023-10-31T08:54:38;11.60;99.90
34135;DHT22;20410;55.578;12.968;2023-10-31T08:57:03;11.70;99.90
34135;DHT22;20410;55.578;12.968;2023-10-31T08:59:29;11.80;99.90
34135;DHT22;20410;55.578;12.968;2023-10-31T09:01:54;12.00;99.90
34135;DHT22;20410;55.578;12.968;2023-10-31T09:04:20;12.10;99.90
34135;DHT22;20410;55.578;12.968;2023-10-31T09:06:45;12.10;99.90
34135;DHT22;20410;55.578;12.968;2023-10-31T09:09:11;12.10;99.90
34135;DHT22;20410;55.578;12.968;2023-10-31T09:11:38;12.10;99.90
34135;DHT22;20410;55.578;12.968;2023-10-31T09:14:03;12.10;99.90
34135;DHT22;20410;55.578;12.968;2023-10-31T09:16:29;12.10;99.90
34135;DHT22;20410;55.578;12.968;2023-10-31T09:18:54;12.10;99.90
34135;DHT22;20410;55.578;12.968;2023-10-31T09:21:20;12.10;99.90
34135;DHT22;20410;55.578;12.968;2023-10-31T09:23:45;12.10;99.90
34135;DHT22;20410;55.578;12.968;2023-10-31T09:26:11;12.10;99.90
34135;DHT22;20410;55.578;12.968;2023-10-31T09:28:37;12.10;99.90
34135;DHT22;20410;55.578;12.968;2023-10-31T09:31:04;12.10;99.90
34135;DHT22;20410;55.578;12.968;2023-10-31T09:33:30;12.20;99.90
34135;DHT22;20410;55.578;12.968;2023-10-31T09:35:55;12.20;99.90
34135;DHT22;20410;55.578;12.968;2023-10-31T09:38:21;12.30;99.90
34135;DHT22;20410;55.578;12.968;2023-10-31T09:40:46;12.20;99.90
34135;DHT22;20410;55.578;12.968;2023-10-31T09:43:12;12.30;99.90
34135;DHT22;20410;55.578;12.968;2023-10-31T09:45:37;12.30;99.90
34135;DHT22;20410;55.578;12.968;2023-10-31T09:48:03;12.20;99.90
34135;DHT22;20410;55.578;12.968;2023-10-31T09:50:29;12.20;99.90
34135;DHT22;20410;55.578;12.968;2023-10-31T09:52:56;12.20;99.90
34135;DHT22;20410;55.578;12.968;2023-10-31T09:55:22;12.20;99.90
34135;DHT22;20410;55.578;12.968;2023-10-31T09:57:48;12.20;99.90
34135;DHT22;20410;55.578;12.968;2023-10-31T10:00:14;12.20;99.90
34135;DHT22;20410;55.578;12.968;2023-10-31T10:02:40;12.20;99.90
34135;DHT22;20410;55.578;12.968;2023-10-31T10:05:07;12.20;99.90
34135;DHT22;20410;55.578;12.968;2023-10-31T10:07:34;12.20;99.90
34135;DHT22;20410;55.578;12.968;2023-10-31T10:10:01;12.20;99.90
34135;DHT22;20410;55.578;12.968;2023-10-31T10:12:26;12.20;99.90
34135;DHT22;20410;55.578;12.968;2023-10-31T10:14:52;12.20;99.90
34135;DHT22;20410;55.578;12.968;2023-10-31T10:17:22;12.20;99.90
34135;DHT22;20410;55.578;12.968;2023-10-31T10:19:48;12.20;99.90
34135;DHT22;20410;55.578;12.968;2023-10-31T10:22:20;12.20;99.90
34135;DHT22;20410;55.578;12.968;2023-10-31T10:24:45;12.20;99.90
34135;DHT22;20410;55.578;12.968;2023-10-31T10:27:11;12.20;99.90
34135;DHT22;20410;55.578;12.968;2023-10-31T10:29:38;12.10;99.90
34135;DHT22;20410;55.578;12.968;2023-10-31T10:32:07;12.10;99.90
34135;DHT22;20410;55.578;12.968;2023-10-31T10:34:36;12.00;99.90
34135;DHT22;20410;55.578;12.968;2023-10-31T10:37:04;11.80;99.90
34135;DHT22;20410;55.578;12.968;2023-10-31T10:39:32;11.80;99.90
34135;DHT22;20410;55.578;12.968;2023-10-31T10:42:00;11.60;99.90
34135;DHT22;20410;55.578;12.968;2023-10-31T10:44:35;11.50;99.90
34135;DHT22;20410;55.578;12.968;2023-10-31T10:47:06;11.40;99.90
34135;DHT22;20410;55.578;12.968;2023-10-31T10:49:36;11.40;99.90
34135;DHT22;20410;55.578;12.968;2023-10-31T10:52:17;11.40;99.90
34135;DHT22;20410;55.578;12.968;2023-10-31T10:54:54;11.40;99.90
34135;DHT22;20410;55.578;12.968;2023-10-31T11:00:16;11.30;99.90
34135;DHT22;20410;55.578;12.968;2023-10-31T11:02:43;11.30;99.90
34135;DHT22;20410;55.578;12.968;2023-10-31T11:05:09;11.20;99.90
34135;DHT22;20410;55.578;12.968;2023-10-31T11:07:37;11.20;99.90
34135;DHT22;20410;55.578;12.968;2023-10-31T11:10:03;11.30;99.90
34135;DHT22;20410;55.578;12.968;2023-10-31T11:12:30;11.20;99.90
34135;DHT22;20410;55.578;12.968;2023-10-31T11:15:01;11.10;99.90
34135;DHT22;20410;55.578;12.968;2023-10-31T11:17:30;11.10;99.90
34135;DHT22;20410;55.578;12.968;2023-10-31T11:19:57;11.00;99.90
34135;DHT22;20410;55.578;12.968;2023-10-31T11:22:23;10.90;99.90
34135;DHT22;20410;55.578;12.968;2023-10-31T11:24:49;11.00;99.90
34135;DHT22;20410;55.578;12.968;2023-10-31T11:27:17;11.00;99.90
34135;DHT22;20410;55.578;12.968;2023-10-31T11:29:43;10.90;99.90
34135;DHT22;20410;55.578;12.968;2023-10-31T11:32:09;10.80;99.90
34135;DHT22;20410;55.578;12.968;2023-10-31T11:34:38;10.80;99.90
34135;DHT22;20410;55.578;12.968;2023-10-31T11:37:26;10.80;99.90
34135;DHT22;20410;55.578;12.968;2023-10-31T11:40:20;10.80;99.90
34135;DHT22;20410;55.578;12.968;2023-10-31T11:42:51;10.80;99.90
34135;DHT22;20410;55.578;12.968;2023-10-31T11:45:36;10.70;99.90
34135;DHT22;20410;55.578;12.968;2023-10-31T11:48:07;10.80;99.90
34135;DHT22;20410;55.578;12.968;2023-10-31T11:50:34;10.70;99.90
34135;DHT22;20410;55.578;12.968;2023-10-31T11:55:38;10.70;99.90
34135;DHT22;20410;55.578;12.968;2023-10-31T12:00:42;10.60;99.90
34135;DHT22;20410;55.578;12.968;2023-10-31T12:03:08;10.60;99.90
34135;DHT22;20410;55.578;12.968;2023-10-31T12:05:33;10.50;99.90
34135;DHT22;20410;55.578;12.968;2023-10-31T12:07:59;10.60;99.90
34135;DHT22;20410;55.578;12.968;2023-10-31T12:10:25;10.60;99.90
34135;DHT22;20410;55.578;12.968;2023-10-31T12:12:53;10.60;99.90
34135;DHT22;20410;55.578;12.968;2023-10-31T12:15:19;10.60;99.90
34135;DHT22;20410;55.578;12.968;2023-10-31T12:17:44;10.60;99.90
34135;DHT22;20410;55.578;12.968;2023-10-31T12:20:10;10.60;99.90
34135;DHT22;20410;55.578;12.968;2023-10-31T12:22:36;10.60;99.90
34135;DHT22;20410;55.578;12.968;2023-10-31T12:27:48;10.60;99.90
34135;DHT22;20410;55.578;12.968;2023-10-31T12:30:16;10.60;99.90
34135;DHT22;20410;55.578;12.968;2023-10-31T12:32:43;10.60;99.90
34135;DHT22;20410;55.578;12.968;2023-10-31T12:35:15;10.60;99.90
34135;DHT22;20410;55.578;12.968;2023-10-31T12:37:49;10.60;99.90
34135;DHT22;20410;55.578;12.968;2023-10-31T12:40:19;10.60;99.90
34135;DHT22;20410;55.578;12.968;2023-10-31T12:42:47;10.50;99.90
34135;DHT22;20410;55.578;12.968;2023-10-31T12:45:13;10.40;99.90
34135;DHT22;20410;55.578;12.968;2023-10-31T12:47:40;10.20;99.90
34135;DHT22;20410;55.578;12.968;2023-10-31T12:50:16;10.30;99.90
34135;DHT22;20410;55.578;12.968;2023-10-31T12:52:48;10.20;99.90
34135;DHT22;20410;55.578;12.968;2023-10-31T12:55:15;10.20;99.90
34135;DHT22;20410;55.578;12.968;2023-10-31T12:57:41;10.10;99.90
34135;DHT22;20410;55.578;12.968;2023-10-31T13:00:07;10.10;99.90
34135;DHT22;20410;55.578;12.968;2023-10-31T13:02:36;10.20;99.90
34135;DHT22;20410;55.578;12.968;2023-10-31T13:05:20;10.10;99.90
34135;DHT22;20410;55.578;12.968;2023-10-31T13:07:51;10.10;99.90
34135;DHT22;20410;55.578;12.968;2023-10-31T13:10:18;9.90;99.90
34135;DHT22;20410;55.578;12.968;2023-10-31T13:12:47;9.90;99.90
34135;DHT22;20410;55.578;12.968;2023-10-31T13:15:14;9.90;99.90
34135;DHT22;20410;55.578;12.968;2023-10-31T13:17:39;9.90;99.90
34135;DHT22;20410;55.578;12.968;2023-10-31T13:20:07;9.90;99.90
34135;DHT22;20410;55.578;12.968;2023-10-31T13:22:35;9.80;99.90
34135;DHT22;20410;55.578;12.968;2023-10-31T13:25:01;9.80;99.90
34135;DHT22;20410;55.578;12.968;2023-10-31T13:27:30;9.80;99.90
34135;DHT22;20410;55.578;12.968;2023-10-31T13:29:56;9.80;99.90
34135;DHT22;20410;55.578;12.968;2023-10-31T13:32:22;9.70;99.90
34135;DHT22;20410;55.578;12.968;2023-10-31T13:34:47;9.70;99.90
34135;DHT22;20410;55.578;12.968;2023-10-31T13:37:13;9.70;99.90
34135;DHT22;20410;55.578;12.968;2023-10-31T13:39:39;9.60;99.90
34135;DHT22;20410;55.578;12.968;2023-10-31T13:42:04;9.60;99.90
34135;DHT22;20410;55.578;12.968;2023-10-31T13:44:30;9.50;99.90
34135;DHT22;20410;55.578;12.968;2023-10-31T13:46:56;9.50;99.90
34135;DHT22;20410;55.578;12.968;2023-10-31T13:49:21;9.40;99.90
34135;DHT22;20410;55.578;12.968;2023-10-31T13:51:47;9.30;99.90
34135;DHT22;20410;55.578;12.968;2023-10-31T13:54:14;9.20;99.90
34135;DHT22;20410;55.578;12.968;2023-10-31T13:56:40;9.20;99.90
34135;DHT22;20410;55.578;12.968;2023-10-31T13:59:05;9.10;99.90
34135;DHT22;20410;55.578;12.968;2023-10-31T14:01:31;9.10;99.90
34135;DHT22;20410;55.578;12.968;2023-10-31T14:03:56;9.00;99.90
34135;DHT22;20410;55.578;12.968;2023-10-31T14:06:22;8.90;99.90
34135;DHT22;20410;55.578;12.968;2023-10-31T14:08:47;8.80;99.90
34135;DHT22;20410;55.578;12.968;2023-10-31T14:11:13;8.80;99.90
34135;DHT22;20410;55.578;12.968;2023-10-31T14:13:39;8.60;99.90
34135;DHT22;20410;55.578;12.968;2023-10-31T14:16:06;8.60;99.90
34135;DHT22;20410;55.578;12.968;2023-10-31T14:18:32;8.60;99.90
34135;DHT22;20410;55.578;12.968;2023-10-31T14:20:57;8.50;99.90
34135;DHT22;20410;55.578;12.968;2023-10-31T14:23:23;8.40;99.90
34135;DHT22;20410;55.578;12.968;2023-10-31T14:25:50;8.40;99.90
34135;DHT22;20410;55.578;12.968;2023-10-31T14:28:15;8.40;99.90
34135;DHT22;20410;55.578;12.968;2023-10-31T14:30:41;8.40;99.90
34135;DHT22;20410;55.578;12.968;2023-10-31T14:33:07;8.40;99.90
34135;DHT22;20410;55.578;12.968;2023-10-31T14:35:33;8.30;99.90
34135;DHT22;20410;55.578;12.968;2023-10-31T14:38:00;8.30;99.90
34135;DHT22;20410;55.578;12.968;2023-10-31T14:40:26;8.30;99.90
34135;DHT22;20410;55.578;12.968;2023-10-31T14:42:51;8.20;99.90
34135;DHT22;20410;55.578;12.968;2023-10-31T14:45:17;8.20;99.90
34135;DHT22;20410;55.578;12.968;2023-10-31T14:47:42;8.20;99.90
34135;DHT22;20410;55.578;12.968;2023-10-31T14:50:08;8.20;99.90
34135;DHT22;20410;55.578;12.968;2023-10-31T14:52:34;8.20;99.90
34135;DHT22;20410;55.578;12.968;2023-10-31T14:54:59;8.20;99.90
34135;DHT22;20410;55.578;12.968;2023-10-31T14:57:25;8.10;99.90
34135;DHT22;20410;55.578;12.968;2023-10-31T14:59:50;8.10;99.90
34135;DHT22;20410;55.578;12.968;2023-10-31T15:02:16;8.10;99.90
34135;DHT22;20410;55.578;12.968;2023-10-31T15:04:41;8.10;99.90
34135;DHT22;20410;55.578;12.968;2023-10-31T15:07:07;8.10;99.90
34135;DHT22;20410;55.578;12.968;2023-10-31T15:09:32;8.00;99.90
34135;DHT22;20410;55.578;12.968;2023-10-31T15:11:58;8.10;99.90
34135;DHT22;20410;55.578;12.968;2023-10-31T15:14:24;8.00;99.90
34135;DHT22;20410;55.578;12.968;2023-10-31T15:16:49;8.00;99.90
34135;DHT22;20410;55.578;12.968;2023-10-31T15:19:15;8.00;99.90
34135;DHT22;20410;55.578;12.968;2023-10-31T15:21:40;8.10;99.90
34135;DHT22;20410;55.578;12.968;2023-10-31T15:24:06;8.10;99.90